YBS YBTH-YSSY
Flight info
| Callsign | YBS |
|---|---|
| Flight time | 0h 48m |
| Altitude | 7000 |
| Route | YBTH KADOM YSSY |
| Aircraft | DA42/L-V/N |
Departure
| Time | 2026-04-30 07:42 |
|---|---|
| Airport | Bathurst Airport (YBTH) |
Arrival
| Time | 2026-04-30 08:30 |
|---|---|
| Airport | Sydney Kingsford Smith International Airport (YSSY) |
| Time | Latitude | Longitude | Altitude | Speed | Heading |
|---|---|---|---|---|---|
| 2026-04-30 07:40 | -33.40200 | 149.65098 | 2402 ft | 14 kts | 356° |
| 2026-04-30 07:40 | -33.40148 | 149.65081 | 2400 ft | 8 kts | 176° |
| 2026-04-30 07:40 | -33.40190 | 149.65087 | 2401 ft | 3 kts | 174° |
| 2026-04-30 07:41 | -33.40269 | 149.65097 | 2402 ft | 33 kts | 181° |
| 2026-04-30 07:41 | -33.40696 | 149.65127 | 2414 ft | 85 kts | 175° |
| 2026-04-30 07:41 | -33.41343 | 149.65171 | 2648 ft | 96 kts | 171° |
| 2026-04-30 07:41 | -33.42028 | 149.65229 | 2985 ft | 98 kts | 163° |
| 2026-04-30 07:42 | -33.42565 | 149.65598 | 3391 ft | 88 kts | 120° |
| 2026-04-30 07:42 | -33.42590 | 149.66269 | 3786 ft | 84 kts | 60° |
| 2026-04-30 07:42 | -33.42073 | 149.66668 | 4124 ft | 95 kts | 14° |
| 2026-04-30 07:42 | -33.41408 | 149.66603 | 4467 ft | 96 kts | 358° |
| 2026-04-30 07:43 | -33.40748 | 149.66478 | 4819 ft | 96 kts | 357° |
| 2026-04-30 07:43 | -33.40079 | 149.66358 | 5176 ft | 97 kts | 358° |
| 2026-04-30 07:43 | -33.39420 | 149.66435 | 5488 ft | 96 kts | 30° |
| 2026-04-30 07:43 | -33.39001 | 149.66987 | 5850 ft | 92 kts | 73° |
| 2026-04-30 07:44 | -33.38999 | 149.67501 | 6069 ft | 95 kts | 105° |
| 2026-04-30 07:44 | -33.39617 | 149.68274 | 6522 ft | 104 kts | 148° |
| 2026-04-30 07:44 | -33.40283 | 149.68605 | 6882 ft | 105 kts | 153° |
| 2026-04-30 07:44 | -33.40756 | 149.68833 | 6991 ft | 118 kts | 153° |
| 2026-04-30 07:45 | -33.41575 | 149.69272 | 6995 ft | 138 kts | 152° |
| 2026-04-30 07:45 | -33.42485 | 149.69782 | 7006 ft | 150 kts | 148° |
| 2026-04-30 07:45 | -33.43343 | 149.70557 | 7001 ft | 156 kts | 129° |
| 2026-04-30 07:45 | -33.43968 | 149.71635 | 7007 ft | 161 kts | 119° |
| 2026-04-30 07:46 | -33.44525 | 149.72808 | 7004 ft | 163 kts | 117° |
| 2026-04-30 07:46 | -33.45080 | 149.74013 | 7002 ft | 165 kts | 117° |
| 2026-04-30 07:46 | -33.45643 | 149.75221 | 7009 ft | 167 kts | 117° |
| 2026-04-30 07:46 | -33.46208 | 149.76436 | 7005 ft | 168 kts | 117° |
| 2026-04-30 07:47 | -33.46786 | 149.77662 | 7011 ft | 169 kts | 118° |
| 2026-04-30 07:47 | -33.47365 | 149.78899 | 7012 ft | 170 kts | 117° |
| 2026-04-30 07:47 | -33.47942 | 149.80137 | 7009 ft | 170 kts | 117° |
| 2026-04-30 07:47 | -33.48515 | 149.81360 | 7007 ft | 168 kts | 117° |
| 2026-04-30 07:48 | -33.49082 | 149.82576 | 7010 ft | 166 kts | 117° |
| 2026-04-30 07:48 | -33.49644 | 149.83779 | 7010 ft | 167 kts | 117° |
| 2026-04-30 07:48 | -33.50217 | 149.85011 | 7015 ft | 168 kts | 117° |
| 2026-04-30 07:48 | -33.50793 | 149.86238 | 7009 ft | 169 kts | 117° |
| 2026-04-30 07:49 | -33.51368 | 149.87466 | 7016 ft | 169 kts | 117° |
| 2026-04-30 07:49 | -33.51940 | 149.88696 | 7014 ft | 169 kts | 118° |
| 2026-04-30 07:49 | -33.52507 | 149.89908 | 7015 ft | 168 kts | 117° |
| 2026-04-30 07:49 | -33.53077 | 149.91133 | 7013 ft | 167 kts | 117° |
| 2026-04-30 07:50 | -33.53643 | 149.92347 | 7011 ft | 166 kts | 116° |
| 2026-04-30 07:50 | -33.54201 | 149.93554 | 7020 ft | 165 kts | 117° |
| 2026-04-30 07:50 | -33.54761 | 149.94748 | 7017 ft | 166 kts | 118° |
| 2026-04-30 07:50 | -33.55332 | 149.95971 | 7016 ft | 166 kts | 117° |
| 2026-04-30 07:51 | -33.55894 | 149.97181 | 7023 ft | 167 kts | 117° |
| 2026-04-30 07:51 | -33.56463 | 149.98401 | 7022 ft | 168 kts | 117° |
| 2026-04-30 07:51 | -33.57032 | 149.99624 | 7024 ft | 168 kts | 117° |
| 2026-04-30 07:51 | -33.57599 | 150.00847 | 7019 ft | 169 kts | 117° |
| 2026-04-30 07:52 | -33.58172 | 150.02082 | 7022 ft | 170 kts | 117° |
| 2026-04-30 07:52 | -33.58742 | 150.03305 | 7026 ft | 170 kts | 117° |
| 2026-04-30 07:52 | -33.59324 | 150.04558 | 7024 ft | 171 kts | 117° |
| 2026-04-30 07:52 | -33.59902 | 150.05803 | 7023 ft | 171 kts | 117° |
| 2026-04-30 07:53 | -33.60476 | 150.07040 | 7025 ft | 171 kts | 116° |
| 2026-04-30 07:53 | -33.61059 | 150.08296 | 7019 ft | 171 kts | 117° |
| 2026-04-30 07:53 | -33.61630 | 150.09528 | 7024 ft | 170 kts | 117° |
| 2026-04-30 07:53 | -33.62208 | 150.10773 | 7015 ft | 170 kts | 117° |
| 2026-04-30 07:54 | -33.62784 | 150.12017 | 7016 ft | 170 kts | 117° |
| 2026-04-30 07:54 | -33.63354 | 150.13244 | 7021 ft | 170 kts | 117° |
| 2026-04-30 07:54 | -33.63931 | 150.14490 | 7021 ft | 170 kts | 117° |
| 2026-04-30 07:54 | -33.64511 | 150.15742 | 7020 ft | 170 kts | 117° |
| 2026-04-30 07:55 | -33.65080 | 150.16971 | 7022 ft | 171 kts | 117° |
| 2026-04-30 07:55 | -33.65663 | 150.18231 | 7025 ft | 171 kts | 117° |
| 2026-04-30 07:55 | -33.66236 | 150.19471 | 7020 ft | 171 kts | 117° |
| 2026-04-30 07:55 | -33.66812 | 150.20718 | 7019 ft | 170 kts | 117° |
| 2026-04-30 07:56 | -33.67388 | 150.21965 | 7026 ft | 171 kts | 118° |
| 2026-04-30 07:56 | -33.67968 | 150.23213 | 7025 ft | 171 kts | 118° |
| 2026-04-30 07:56 | -33.68544 | 150.24465 | 7022 ft | 171 kts | 117° |
| 2026-04-30 07:56 | -33.69116 | 150.25705 | 7020 ft | 171 kts | 117° |
| 2026-04-30 07:57 | -33.69689 | 150.26946 | 7021 ft | 170 kts | 117° |
| 2026-04-30 07:57 | -33.70258 | 150.28179 | 7017 ft | 169 kts | 117° |
| 2026-04-30 07:57 | -33.70832 | 150.29417 | 7019 ft | 168 kts | 117° |
| 2026-04-30 07:57 | -33.71286 | 150.30699 | 7020 ft | 167 kts | 107° |
| 2026-04-30 07:58 | -33.71649 | 150.32044 | 7015 ft | 168 kts | 107° |
| 2026-04-30 07:58 | -33.72007 | 150.33361 | 7016 ft | 168 kts | 107° |
| 2026-04-30 07:58 | -33.72372 | 150.34701 | 7016 ft | 169 kts | 107° |
| 2026-04-30 07:58 | -33.72741 | 150.36059 | 7021 ft | 170 kts | 107° |
| 2026-04-30 07:59 | -33.73108 | 150.37414 | 7010 ft | 170 kts | 107° |
| 2026-04-30 07:59 | -33.73468 | 150.38744 | 7018 ft | 170 kts | 108° |
| 2026-04-30 07:59 | -33.73841 | 150.40110 | 7010 ft | 171 kts | 107° |
| 2026-04-30 08:00 | -33.74572 | 150.42806 | 7010 ft | 171 kts | 107° |
| 2026-04-30 08:00 | -33.74945 | 150.44177 | 7013 ft | 170 kts | 107° |
| 2026-04-30 08:00 | -33.75308 | 150.45522 | 7010 ft | 171 kts | 107° |
| 2026-04-30 08:00 | -33.75676 | 150.46887 | 7006 ft | 171 kts | 107° |
| 2026-04-30 08:01 | -33.76044 | 150.48244 | 7003 ft | 170 kts | 107° |
| 2026-04-30 08:01 | -33.76412 | 150.49602 | 7011 ft | 170 kts | 107° |
| 2026-04-30 08:01 | -33.76779 | 150.50956 | 7012 ft | 171 kts | 107° |
| 2026-04-30 08:01 | -33.77146 | 150.52314 | 7007 ft | 171 kts | 107° |
| 2026-04-30 08:02 | -33.77880 | 150.55032 | 7009 ft | 171 kts | 107° |
| 2026-04-30 08:02 | -33.78242 | 150.56377 | 7010 ft | 171 kts | 107° |
| 2026-04-30 08:03 | -33.78978 | 150.59113 | 7004 ft | 171 kts | 106° |
| 2026-04-30 08:03 | -33.79713 | 150.61831 | 6997 ft | 171 kts | 107° |
| 2026-04-30 08:03 | -33.80075 | 150.63180 | 7002 ft | 170 kts | 107° |
| 2026-04-30 08:04 | -33.80444 | 150.64546 | 7009 ft | 170 kts | 107° |
| 2026-04-30 08:04 | -33.80804 | 150.65882 | 7004 ft | 170 kts | 107° |
| 2026-04-30 08:04 | -33.81169 | 150.67239 | 7009 ft | 171 kts | 107° |
| 2026-04-30 08:04 | -33.81533 | 150.68600 | 7006 ft | 171 kts | 107° |
| 2026-04-30 08:05 | -33.81899 | 150.69968 | 7005 ft | 171 kts | 107° |
| 2026-04-30 08:05 | -33.82264 | 150.71322 | 7007 ft | 171 kts | 107° |
| 2026-04-30 08:05 | -33.82597 | 150.72685 | 7004 ft | 171 kts | 103° |
| 2026-04-30 08:05 | -33.82904 | 150.74063 | 7001 ft | 171 kts | 105° |
| 2026-04-30 08:06 | -33.83256 | 150.75439 | 7003 ft | 171 kts | 107° |
| 2026-04-30 08:06 | -33.83621 | 150.76791 | 7001 ft | 170 kts | 107° |
| 2026-04-30 08:06 | -33.83990 | 150.78148 | 7000 ft | 170 kts | 107° |
| 2026-04-30 08:06 | -33.84356 | 150.79503 | 7005 ft | 171 kts | 107° |
| 2026-04-30 08:07 | -33.84723 | 150.80862 | 7003 ft | 170 kts | 107° |
| 2026-04-30 08:07 | -33.85089 | 150.82214 | 7004 ft | 170 kts | 107° |
| 2026-04-30 08:07 | -33.85455 | 150.83575 | 7003 ft | 170 kts | 107° |
| 2026-04-30 08:07 | -33.85817 | 150.84917 | 7001 ft | 170 kts | 107° |
| 2026-04-30 08:08 | -33.86186 | 150.86284 | 7007 ft | 171 kts | 107° |
| 2026-04-30 08:08 | -33.86511 | 150.87488 | 7008 ft | 171 kts | 107° |
| 2026-04-30 08:08 | -33.86880 | 150.88863 | 7000 ft | 170 kts | 107° |
| 2026-04-30 08:08 | -33.87243 | 150.90209 | 7004 ft | 170 kts | 107° |
| 2026-04-30 08:09 | -33.87609 | 150.91567 | 7005 ft | 171 kts | 107° |
| 2026-04-30 08:09 | -33.87978 | 150.92941 | 7002 ft | 171 kts | 107° |
| 2026-04-30 08:09 | -33.88342 | 150.94298 | 6999 ft | 171 kts | 107° |
| 2026-04-30 08:09 | -33.88708 | 150.95654 | 6997 ft | 171 kts | 107° |
| 2026-04-30 08:10 | -33.89067 | 150.96992 | 6997 ft | 170 kts | 107° |
| 2026-04-30 08:10 | -33.89434 | 150.98356 | 7000 ft | 171 kts | 107° |
| 2026-04-30 08:10 | -33.89797 | 150.99715 | 7001 ft | 170 kts | 107° |
| 2026-04-30 08:10 | -33.90162 | 151.01076 | 6992 ft | 171 kts | 107° |
| 2026-04-30 08:11 | -33.90526 | 151.02432 | 6993 ft | 171 kts | 107° |
| 2026-04-30 08:11 | -33.90890 | 151.03792 | 6998 ft | 171 kts | 107° |
| 2026-04-30 08:11 | -33.91253 | 151.05151 | 6997 ft | 171 kts | 107° |
| 2026-04-30 08:11 | -33.91620 | 151.06520 | 6992 ft | 171 kts | 107° |
| 2026-04-30 08:12 | -33.91983 | 151.07876 | 6995 ft | 171 kts | 107° |
| 2026-04-30 08:12 | -33.92348 | 151.09241 | 6998 ft | 172 kts | 107° |
| 2026-04-30 08:12 | -33.92713 | 151.10612 | 6990 ft | 171 kts | 107° |
| 2026-04-30 08:12 | -33.93069 | 151.11943 | 7023 ft | 171 kts | 107° |
| 2026-04-30 08:13 | -33.93431 | 151.13294 | 7024 ft | 171 kts | 107° |
| 2026-04-30 08:13 | -33.93797 | 151.14668 | 7023 ft | 171 kts | 107° |
| 2026-04-30 08:13 | -33.94160 | 151.16032 | 7020 ft | 171 kts | 107° |
| 2026-04-30 08:13 | -33.94520 | 151.17376 | 7021 ft | 171 kts | 107° |
| 2026-04-30 08:14 | -33.94889 | 151.18753 | 7018 ft | 170 kts | 107° |
| 2026-04-30 08:14 | -33.95244 | 151.20092 | 7018 ft | 170 kts | 107° |
| 2026-04-30 08:14 | -33.95605 | 151.21454 | 7017 ft | 170 kts | 107° |
| 2026-04-30 08:14 | -33.95968 | 151.22810 | 7021 ft | 170 kts | 107° |
| 2026-04-30 08:15 | -33.96334 | 151.24172 | 7018 ft | 170 kts | 107° |
| 2026-04-30 08:15 | -33.96691 | 151.25516 | 7027 ft | 170 kts | 107° |
| 2026-04-30 08:15 | -33.97052 | 151.26871 | 7019 ft | 170 kts | 107° |
| 2026-04-30 08:15 | -33.97419 | 151.28237 | 7014 ft | 170 kts | 107° |
| 2026-04-30 08:16 | -33.97915 | 151.29512 | 7014 ft | 171 kts | 131° |
| 2026-04-30 08:16 | -33.98953 | 151.30177 | 6911 ft | 171 kts | 160° |
| 2026-04-30 08:16 | -34.00095 | 151.30569 | 6736 ft | 170 kts | 162° |
| 2026-04-30 08:16 | -34.01230 | 151.30941 | 6555 ft | 169 kts | 162° |
| 2026-04-30 08:17 | -34.02373 | 151.31303 | 6376 ft | 169 kts | 163° |
| 2026-04-30 08:17 | -34.03509 | 151.31657 | 6200 ft | 168 kts | 162° |
| 2026-04-30 08:17 | -34.04648 | 151.32006 | 6022 ft | 169 kts | 163° |
| 2026-04-30 08:17 | -34.05785 | 151.32350 | 5846 ft | 169 kts | 162° |
| 2026-04-30 08:18 | -34.06921 | 151.32693 | 5675 ft | 169 kts | 163° |
| 2026-04-30 08:18 | -34.08062 | 151.33038 | 5490 ft | 169 kts | 163° |
| 2026-04-30 08:18 | -34.09200 | 151.33381 | 5292 ft | 169 kts | 162° |
| 2026-04-30 08:18 | -34.09969 | 151.33609 | 5158 ft | 169 kts | 163° |
| 2026-04-30 08:19 | -34.11478 | 151.34056 | 4888 ft | 168 kts | 163° |
| 2026-04-30 08:19 | -34.12615 | 151.34390 | 4680 ft | 166 kts | 163° |
| 2026-04-30 08:19 | -34.13717 | 151.34711 | 4482 ft | 164 kts | 163° |
| 2026-04-30 08:19 | -34.14469 | 151.34931 | 4347 ft | 164 kts | 162° |
| 2026-04-30 08:20 | -34.15561 | 151.35250 | 4146 ft | 162 kts | 163° |
| 2026-04-30 08:20 | -34.16655 | 151.35568 | 3946 ft | 161 kts | 163° |
| 2026-04-30 08:20 | -34.17741 | 151.35884 | 3712 ft | 162 kts | 163° |
| 2026-04-30 08:20 | -34.18853 | 151.36129 | 3458 ft | 166 kts | 179° |
| 2026-04-30 08:21 | -34.19909 | 151.35550 | 3203 ft | 170 kts | 226° |
| 2026-04-30 08:21 | -34.20460 | 151.34303 | 2951 ft | 170 kts | 251° |
| 2026-04-30 08:21 | -34.20852 | 151.32974 | 2776 ft | 166 kts | 252° |
| 2026-04-30 08:21 | -34.21224 | 151.31678 | 2647 ft | 161 kts | 252° |
| 2026-04-30 08:22 | -34.21502 | 151.30397 | 2513 ft | 156 kts | 273° |
| 2026-04-30 08:22 | -34.21114 | 151.29251 | 2389 ft | 145 kts | 317° |
| 2026-04-30 08:22 | -34.20399 | 151.28404 | 2266 ft | 143 kts | 322° |
| 2026-04-30 08:22 | -34.19666 | 151.27585 | 2139 ft | 142 kts | 322° |
| 2026-04-30 08:23 | -34.18935 | 151.26775 | 2025 ft | 141 kts | 322° |
| 2026-04-30 08:23 | -34.18224 | 151.25984 | 2023 ft | 137 kts | 323° |
| 2026-04-30 08:23 | -34.17525 | 151.25206 | 2025 ft | 136 kts | 322° |
| 2026-04-30 08:23 | -34.16823 | 151.24447 | 2017 ft | 135 kts | 327° |
| 2026-04-30 08:24 | -34.15995 | 151.24007 | 2021 ft | 128 kts | 348° |
| 2026-04-30 08:24 | -34.15142 | 151.23717 | 2017 ft | 128 kts | 349° |
| 2026-04-30 08:24 | -34.14275 | 151.23458 | 2024 ft | 127 kts | 356° |
| 2026-04-30 08:24 | -34.13401 | 151.23330 | 2023 ft | 125 kts | 358° |
| 2026-04-30 08:25 | -34.12536 | 151.23211 | 2025 ft | 126 kts | 358° |
| 2026-04-30 08:25 | -34.11671 | 151.23086 | 2024 ft | 126 kts | 356° |
| 2026-04-30 08:25 | -34.10792 | 151.22903 | 2029 ft | 128 kts | 354° |
| 2026-04-30 08:25 | -34.09913 | 151.22716 | 2028 ft | 130 kts | 354° |
| 2026-04-30 08:26 | -34.09020 | 151.22493 | 2028 ft | 131 kts | 353° |
| 2026-04-30 08:26 | -34.08130 | 151.22267 | 2031 ft | 131 kts | 353° |
| 2026-04-30 08:26 | -34.07216 | 151.22037 | 1947 ft | 136 kts | 353° |
| 2026-04-30 08:26 | -34.06334 | 151.21806 | 1798 ft | 125 kts | 352° |
| 2026-04-30 08:27 | -34.05529 | 151.21583 | 1672 ft | 111 kts | 353° |
| 2026-04-30 08:27 | -34.04802 | 151.21365 | 1524 ft | 105 kts | 352° |
| 2026-04-30 08:27 | -34.04141 | 151.21181 | 1386 ft | 94 kts | 355° |
| 2026-04-30 08:27 | -34.03491 | 151.21011 | 1262 ft | 96 kts | 355° |
| 2026-04-30 08:28 | -34.02826 | 151.20865 | 1142 ft | 99 kts | 356° |
| 2026-04-30 08:28 | -34.02146 | 151.20724 | 1018 ft | 99 kts | 356° |
| 2026-04-30 08:28 | -34.01466 | 151.20571 | 902 ft | 99 kts | 354° |
| 2026-04-30 08:28 | -34.00790 | 151.20342 | 769 ft | 102 kts | 348° |
| 2026-04-30 08:29 | -34.00103 | 151.20131 | 656 ft | 101 kts | 353° |
| 2026-04-30 08:29 | -33.99406 | 151.19955 | 533 ft | 102 kts | 350° |
| 2026-04-30 08:29 | -33.98702 | 151.19780 | 374 ft | 103 kts | 353° |
| 2026-04-30 08:29 | -33.98012 | 151.19614 | 243 ft | 98 kts | 352° |
| 2026-04-30 08:30 | -33.97349 | 151.19447 | 117 ft | 98 kts | 352° |
| 2026-04-30 08:30 | -33.96709 | 151.19284 | 15 ft | 84 kts | 346° |
| 2026-04-30 08:30 | -33.96305 | 151.19180 | 18 ft | 40 kts | 347° |
| 2026-04-30 08:30 | -33.96042 | 151.19110 | 23 ft | 39 kts | 351° |
| 2026-04-30 08:31 | -33.95824 | 151.18982 | 22 ft | 30 kts | 319° |
| 2026-04-30 08:31 | -33.95762 | 151.18913 | 20 ft | 0 kts | 321° |
| 2026-04-30 08:31 | -33.95736 | 151.18884 | 19 ft | 13 kts | 319° |
| 2026-04-30 08:32 | -33.95631 | 151.18809 | 18 ft | 20 kts | 336° |
| 2026-04-30 08:32 | -33.95478 | 151.18763 | 16 ft | 24 kts | 347° |
| 2026-04-30 08:32 | -33.95329 | 151.18724 | 18 ft | 20 kts | 346° |
| 2026-04-30 08:32 | -33.95191 | 151.18625 | 18 ft | 25 kts | 316° |
| 2026-04-30 08:33 | -33.95116 | 151.18463 | 19 ft | 23 kts | 264° |
| 2026-04-30 08:33 | -33.95150 | 151.18256 | 19 ft | 26 kts | 259° |
| 2026-04-30 08:33 | -33.95172 | 151.18146 | 20 ft | 0 kts | 254° |
| 2026-04-30 08:34 | -33.95176 | 151.18122 | 20 ft | 10 kts | 263° |
| 2026-04-30 08:35 | -33.95107 | 151.18033 | 20 ft | 21 kts | 349° |
| 2026-04-30 08:35 | -33.94940 | 151.17991 | 17 ft | 27 kts | 347° |
| 2026-04-30 08:35 | -33.94747 | 151.17940 | 18 ft | 27 kts | 348° |
| 2026-04-30 08:35 | -33.94587 | 151.17901 | 19 ft | 20 kts | 343° |
| 2026-04-30 08:36 | -33.94457 | 151.17907 | 19 ft | 18 kts | 21° |
| 2026-04-30 08:36 | -33.94338 | 151.17893 | 19 ft | 16 kts | 346° |
| 2026-04-30 08:36 | -33.94228 | 151.17865 | 19 ft | 19 kts | 347° |
| 2026-04-30 08:36 | -33.94091 | 151.17828 | 17 ft | 21 kts | 351° |
| 2026-04-30 08:37 | -33.94000 | 151.17939 | 17 ft | 26 kts | 75° |
| 2026-04-30 08:37 | -33.93943 | 151.18195 | 22 ft | 36 kts | 73° |
| 2026-04-30 08:37 | -33.93870 | 151.18497 | 24 ft | 38 kts | 75° |
| 2026-04-30 08:37 | -33.93794 | 151.18768 | 20 ft | 28 kts | 68° |
| 2026-04-30 08:38 | -33.93665 | 151.18815 | 23 ft | 17 kts | 339° |
| 2026-04-30 08:38 | -33.93566 | 151.18842 | 25 ft | 15 kts | 16° |
| 2026-04-30 08:38 | -33.93504 | 151.18801 | 25 ft | 5 kts | 274° |
| 2026-04-30 08:38 | -33.93504 | 151.18800 | 25 ft | 0 kts | 273° |